Time;durP1;ratioP1;P1;durP2;ratioP2;P2;SDS_P1;SDS_P2;PMS_P1;PMS_P2;Temp;Humidity;BMP_temperature;BMP_pressure;BME280_temperature;BME280_humidity;BME280_pressure;Samples;Min_cycle;Max_cycle;Signal;HPM_P1;HPM_P2
2023/10/15 00:00:15;;;;;;;6.95;1.33;;;7.90;99.90;;;;;;4215725;28;20466;-81
2023/10/15 00:02:16;;;;;;;7.53;1.25;;;7.80;99.90;;;;;;4215097;28;20134;-81
2023/10/15 00:04:16;;;;;;;5.20;0.90;;;7.80;99.90;;;;;;4215269;28;20523;-81
2023/10/15 00:06:17;;;;;;;6.85;0.98;;;8.20;99.90;;;;;;4233744;28;20071;-81
2023/10/15 00:08:18;;;;;;;3.53;0.60;;;8.00;99.90;;;;;;4233874;28;20412;-81
2023/10/15 00:10:25;;;;;;;5.65;1.50;;;7.70;99.90;;;;;;4234016;28;20078;-81
2023/10/15 00:12:30;;;;;;;4.82;1.35;;;7.60;99.90;;;;;;4222027;28;20199;-80
2023/10/15 00:14:30;;;;;;;4.70;0.80;;;7.60;99.90;;;;;;4233441;28;20094;-80
2023/10/15 00:16:34;;;;;;;7.38;0.93;;;8.80;99.90;;;;;;4240270;28;20071;-81
2023/10/15 00:18:40;;;;;;;6.70;0.75;;;7.70;99.90;;;;;;4233898;28;20043;-81
2023/10/15 00:20:41;;;;;;;4.88;0.88;;;7.60;99.90;;;;;;4215448;28;20062;-81
2023/10/15 00:22:44;;;;;;;4.57;1.08;;;7.50;99.90;;;;;;4233591;28;20079;-81
2023/10/15 00:24:45;;;;;;;4.30;0.52;;;8.80;99.90;;;;;;4232342;28;20051;-81
2023/10/15 00:26:46;;;;;;;4.97;1.00;;;7.50;99.90;;;;;;4215943;28;20047;-81
2023/10/15 00:28:47;;;;;;;8.07;1.08;;;7.50;99.90;;;;;;4233461;28;20120;-81
2023/10/15 00:30:48;;;;;;;5.72;0.88;;;7.50;99.90;;;;;;4233295;28;20043;-81
2023/10/15 00:32:49;;;;;;;5.35;0.77;;;7.50;99.90;;;;;;4233426;28;20086;-81
2023/10/15 00:34:50;;;;;;;4.38;1.25;;;7.40;99.90;;;;;;4198564;28;20436;-81
2023/10/15 00:36:51;;;;;;;7.30;0.70;;;7.80;99.90;;;;;;4215459;28;20056;-81
2023/10/15 00:38:53;;;;;;;3.17;0.98;;;7.40;99.90;;;;;;4233225;28;20056;-82
2023/10/15 00:41:09;;;;;;;6.40;0.82;;;7.40;99.90;;;;;;4234164;28;20432;-81
2023/10/15 00:43:10;;;;;;;9.43;0.88;;;7.40;99.90;;;;;;4234227;28;20099;-81
2023/10/15 00:45:12;;;;;;;4.72;0.95;;;7.40;99.90;;;;;;4198873;28;20045;-81
2023/10/15 00:47:15;;;;;;;7.47;0.90;;;7.40;99.90;;;;;;4215459;28;20044;-81
2023/10/15 00:49:16;;;;;;;6.97;0.80;;;7.40;99.90;;;;;;4214951;28;20064;-81
2023/10/15 00:51:20;;;;;;;5.97;0.90;;;7.40;99.90;;;;;;4215043;28;20485;-81
2023/10/15 00:53:24;;;;;;;4.15;1.15;;;7.40;99.90;;;;;;4215209;28;20483;-81
2023/10/15 00:55:28;;;;;;;4.82;0.88;;;7.40;99.90;;;;;;4232196;28;20056;-81
2023/10/15 00:57:41;;;;;;;5.88;0.77;;;7.50;99.90;;;;;;4214847;28;20054;-81
2023/10/15 00:59:47;;;;;;;4.75;1.40;;;7.40;99.90;;;;;;4233208;28;20503;-81
2023/10/15 01:02:03;;;;;;;2.35;0.90;;;7.60;99.90;;;;;;4214972;28;20487;-81
2023/10/15 01:04:07;;;;;;;7.00;1.00;;;7.40;99.90;;;;;;4233256;28;20040;-81
2023/10/15 01:06:08;;;;;;;5.13;0.80;;;7.40;99.90;;;;;;4232879;28;20039;-81
2023/10/15 01:08:09;;;;;;;4.45;0.70;;;7.50;99.90;;;;;;4232335;28;20050;-81
2023/10/15 01:10:27;;;;;;;7.10;1.02;;;7.20;99.90;;;;;;4215447;28;20056;-81
2023/10/15 01:12:32;;;;;;;2.67;0.82;;;7.40;99.90;;;;;;4232832;27;20126;-81
2023/10/15 01:14:35;;;;;;;5.78;1.08;;;7.40;99.90;;;;;;4215385;28;20385;-81
2023/10/15 01:16:37;;;;;;;6.80;1.10;;;7.30;99.90;;;;;;4197822;28;20547;-81
2023/10/15 01:18:38;;;;;;;5.50;0.73;;;7.40;99.90;;;;;;4232993;28;20051;-81
2023/10/15 01:20:42;;;;;;;10.40;1.40;;;7.60;99.90;;;;;;4232919;28;20563;-81
2023/10/15 01:22:46;;;;;;;5.72;0.60;;;8.70;99.90;;;;;;4232863;28;20044;-81
2023/10/15 01:24:53;;;;;;;6.22;0.60;;;8.20;99.90;;;;;;4198213;28;20369;-81
2023/10/15 01:27:14;;;;;;;2.38;0.80;;;7.90;99.90;;;;;;4225861;28;20122;-79
2023/10/15 01:29:18;;;;;;;3.53;0.60;;;7.80;99.90;;;;;;4246183;28;20035;-80
2023/10/15 01:31:19;;;;;;;3.42;0.60;;;7.80;99.90;;;;;;4232713;28;20385;-81
2023/10/15 01:33:20;;;;;;;9.25;1.00;;;8.70;99.90;;;;;;4232289;28;20118;-81
2023/10/15 01:35:21;;;;;;;8.10;1.13;;;8.20;99.90;;;;;;4214710;28;20055;-81
2023/10/15 01:39:38;;;;;;;7.45;1.42;;;8.00;99.90;;;;;;4214291;28;20048;-81
2023/10/15 01:41:41;;;;;;;3.05;0.57;;;7.70;99.90;;;;;;4196914;28;20476;-81
2023/10/15 01:43:46;;;;;;;8.23;1.50;;;7.80;99.90;;;;;;4197427;28;20448;-81
2023/10/15 01:45:56;;;;;;;8.63;1.10;;;8.00;99.90;;;;;;4232348;28;20043;-81
2023/10/15 01:48:05;;;;;;;5.57;1.15;;;7.70;99.90;;;;;;4213967;28;20048;-81
2023/10/15 01:50:08;;;;;;;14.07;1.35;;;7.50;99.90;;;;;;4231812;28;20062;-81
2023/10/15 01:52:12;;;;;;;8.40;1.20;;;8.00;99.90;;;;;;4232475;28;20040;-81
2023/10/15 01:54:16;;;;;;;4.90;1.00;;;7.80;99.90;;;;;;4232364;28;20395;-81
2023/10/15 01:56:19;;;;;;;4.53;1.00;;;7.70;99.90;;;;;;4232309;28;20047;-81
2023/10/15 01:58:24;;;;;;;6.82;1.50;;;8.30;99.90;;;;;;4232122;28;20067;-81
2023/10/15 02:00:34;;;;;;;4.85;1.17;;;7.70;99.90;;;;;;4232036;28;20144;-81
2023/10/15 02:02:35;;;;;;;5.47;0.75;;;6.10;99.90;;;;;;4214399;28;20531;-81
2023/10/15 02:04:42;;;;;;;5.53;0.70;;;7.70;99.90;;;;;;4214253;28;20051;-81
2023/10/15 02:06:43;;;;;;;2.55;0.82;;;8.00;99.90;;;;;;4232211;28;20076;-81
2023/10/15 02:08:45;;;;;;;2.30;0.47;;;7.70;99.90;;;;;;4231855;28;20048;-81
2023/10/15 02:10:47;;;;;;;6.95;1.25;;;8.00;99.90;;;;;;4232349;28;20058;-81
2023/10/15 02:12:59;;;;;;;6.38;1.17;;;7.50;99.90;;;;;;4231742;28;20123;-81
2023/10/15 02:15:15;;;;;;;4.72;0.63;;;7.50;99.90;;;;;;4214136;28;20114;-81
2023/10/15 02:17:19;;;;;;;6.45;0.75;;;7.40;99.90;;;;;;4214030;28;20110;-81
2023/10/15 02:21:51;;;;;;;7.03;0.88;;;7.30;99.90;;;;;;4209658;28;20060;-82
2023/10/15 02:23:52;;;;;;;10.68;1.63;;;7.10;99.90;;;;;;4232120;28;20109;-81
2023/10/15 02:25:57;;;;;;;4.78;0.90;;;6.80;99.90;;;;;;4213918;28;20048;-81
2023/10/15 02:27:58;;;;;;;6.70;1.15;;;7.60;99.90;;;;;;4216265;28;20093;-81
2023/10/15 02:29:59;;;;;;;6.72;1.25;;;7.00;99.90;;;;;;4217700;28;20051;-81
2023/10/15 02:32:16;;;;;;;4.88;0.70;;;6.90;99.90;;;;;;4236010;28;20044;-81
2023/10/15 02:34:16;;;;;;;2.13;0.75;;;7.30;99.90;;;;;;4217715;28;20101;-81
2023/10/15 02:36:23;;;;;;;3.05;1.45;;;7.40;99.90;;;;;;4217791;28;20040;-81
2023/10/15 02:38:26;;;;;;;6.93;1.05;;;7.20;99.90;;;;;;4217823;28;20050;-81
2023/10/15 02:40:36;;;;;;;4.10;0.82;;;8.00;99.90;;;;;;4217459;28;20526;-80
2023/10/15 02:42:38;;;;;;;1.95;0.73;;;6.90;99.90;;;;;;4217331;28;20071;-81
2023/10/15 02:44:38;;;;;;;4.43;1.15;;;7.10;99.90;;;;;;4217852;28;20546;-81
2023/10/15 02:46:49;;;;;;;2.47;0.50;;;7.60;99.90;;;;;;4200468;28;20045;-81
2023/10/15 02:48:53;;;;;;;3.70;0.68;;;7.80;99.90;;;;;;4217587;28;20455;-81
2023/10/15 02:51:00;;;;;;;5.20;0.77;;;6.90;99.90;;;;;;4235436;28;20526;-80
2023/10/15 02:53:04;;;;;;;6.10;1.40;;;6.60;99.90;;;;;;4234870;28;20118;-81
2023/10/15 02:55:10;;;;;;;4.38;0.90;;;6.90;99.90;;;;;;4235516;28;20057;-80
2023/10/15 02:57:21;;;;;;;6.07;0.90;;;6.90;99.90;;;;;;4217666;28;20040;-82
2023/10/15 02:59:24;;;;;;;5.22;0.73;;;7.00;99.90;;;;;;4217273;28;20082;-82
2023/10/15 03:01:26;;;;;;;7.10;0.85;;;7.00;99.90;;;;;;4235797;28;20040;-82
2023/10/15 03:03:33;;;;;;;2.47;0.65;;;7.30;99.90;;;;;;4217633;28;20099;-81
2023/10/15 03:05:40;;;;;;;10.05;1.25;;;7.80;99.90;;;;;;4217312;28;20047;-81
2023/10/15 03:07:45;;;;;;;5.05;1.05;;;6.90;99.90;;;;;;4217405;28;20127;-82
2023/10/15 03:09:51;;;;;;;2.92;0.50;;;8.10;99.90;;;;;;4217380;28;20085;-81
2023/10/15 03:11:52;;;;;;;5.75;1.20;;;7.90;99.90;;;;;;4235050;27;20105;-79
2023/10/15 03:13:55;;;;;;;5.72;0.47;;;7.00;99.90;;;;;;4217887;28;20452;-80
2023/10/15 03:15:57;;;;;;;5.20;0.55;;;7.20;99.90;;;;;;4217362;28;20531;-80
2023/10/15 03:17:59;;;;;;;4.53;0.70;;;8.00;99.90;;;;;;4235406;28;20104;-81
2023/10/15 03:22:37;;;;;;;4.35;1.08;;;6.90;99.90;;;;;;4225174;28;20408;-82
2023/10/15 03:24:43;;;;;;;6.15;1.20;;;6.90;99.90;;;;;;4217238;28;20043;-81
2023/10/15 03:26:49;;;;;;;5.03;0.30;;;6.90;99.90;;;;;;4217449;28;20063;-82
2023/10/15 03:28:51;;;;;;;3.72;1.23;;;7.80;99.90;;;;;;4216697;28;20444;-81
2023/10/15 03:30:57;;;;;;;3.10;0.25;;;6.90;99.90;;;;;;4199796;28;20135;-81
2023/10/15 03:33:00;;;;;;;2.42;0.40;;;7.80;99.90;;;;;;4217134;28;20044;-81
2023/10/15 03:35:16;;;;;;;6.20;0.55;;;6.90;99.90;;;;;;4223181;28;20090;-81
2023/10/15 03:37:21;;;;;;;7.80;0.65;;;7.30;99.90;;;;;;4233397;28;20443;-81
2023/10/15 03:40:11;;;;;;;2.90;0.85;;;7.90;99.90;;;;;;4232316;28;20115;-81
2023/10/15 03:41:53;;;;;;;6.18;0.68;;;6.60;99.90;;;;;;4242946;27;20047;-82
2023/10/15 03:44:01;;;;;;;3.90;0.60;;;7.20;99.90;;;;;;4216872;28;20052;-81
2023/10/15 03:46:16;;;;;;;1.27;0.40;;;6.70;99.90;;;;;;4251670;27;20588;-81
2023/10/15 03:48:21;;;;;;;1.05;0.38;;;7.50;99.90;;;;;;4251013;27;20086;-81
2023/10/15 03:50:22;;;;;;;5.78;0.60;;;7.30;99.90;;;;;;4233338;28;20051;-81
2023/10/15 03:52:27;;;;;;;1.27;0.32;;;6.90;99.90;;;;;;4223717;28;20060;-81
2023/10/15 03:54:33;;;;;;;4.88;0.73;;;6.80;99.90;;;;;;4216681;28;20122;-81
2023/10/15 03:56:34;;;;;;;2.97;0.20;;;6.80;99.90;;;;;;4217768;28;20053;-81
2023/10/15 03:58:36;;;;;;;1.48;0.32;;;6.80;99.90;;;;;;4199712;28;20048;-81
2023/10/15 04:00:46;;;;;;;2.25;0.60;;;6.80;99.90;;;;;;4199064;28;20059;-79
2023/10/15 04:03:01;;;;;;;2.55;0.30;;;6.90;99.90;;;;;;4216124;28;20507;-81
2023/10/15 04:05:08;;;;;;;3.80;0.63;;;6.90;99.90;;;;;;4216048;28;20086;-82
2023/10/15 04:07:19;;;;;;;1.33;0.35;;;6.90;99.90;;;;;;4217646;28;20052;-81
2023/10/15 04:09:23;;;;;;;0.82;0.30;;;7.70;99.90;;;;;;4215969;28;20052;-82
2023/10/15 04:11:29;;;;;;;0.95;0.52;;;7.40;99.90;;;;;;4217258;28;20500;-82
2023/10/15 04:13:30;;;;;;;0.85;0.30;;;6.90;99.90;;;;;;4215798;28;20052;-82
2023/10/15 04:15:33;;;;;;;3.05;0.30;;;7.40;99.90;;;;;;4215440;28;20048;-81
2023/10/15 04:17:34;;;;;;;1.92;0.38;;;7.50;99.90;;;;;;4215820;28;20040;-80
2023/10/15 04:19:36;;;;;;;2.38;0.43;;;6.90;99.90;;;;;;4215922;28;20097;-80
2023/10/15 04:21:40;;;;;;;4.57;0.38;;;6.90;99.90;;;;;;4199115;28;20044;-80
2023/10/15 04:23:44;;;;;;;4.40;0.40;;;6.90;99.90;;;;;;4217268;28;20128;-80
2023/10/15 04:25:47;;;;;;;2.17;0.38;;;6.90;99.90;;;;;;4215482;28;20044;-79
2023/10/15 04:27:48;;;;;;;1.85;0.35;;;7.40;99.90;;;;;;4215509;28;20102;-80
2023/10/15 04:29:54;;;;;;;1.35;0.40;;;7.60;99.90;;;;;;4216478;28;20480;-80
2023/10/15 04:32:04;;;;;;;0.90;0.28;;;6.90;99.90;;;;;;4216410;28;20035;-80
2023/10/15 04:34:06;;;;;;;0.85;0.13;;;5.40;99.90;;;;;;4216356;28;20566;-80
2023/10/15 04:36:09;;;;;;;1.35;0.35;;;7.20;99.90;;;;;;4215932;28;20044;-80
2023/10/15 04:38:21;;;;;;;9.25;0.70;;;6.70;99.90;;;;;;4229096;28;20122;-80
2023/10/15 04:40:25;;;;;;;3.03;0.93;;;6.70;99.90;;;;;;4216836;28;20047;-80
2023/10/15 04:42:30;;;;;;;3.00;0.47;;;6.90;99.90;;;;;;4215568;28;20047;-80
2023/10/15 04:44:33;;;;;;;7.28;0.40;;;6.90;99.90;;;;;;4215648;28;20044;-80
2023/10/15 04:46:40;;;;;;;0.57;0.40;;;6.70;99.90;;;;;;4232461;28;20170;-80
2023/10/15 04:48:42;;;;;;;2.10;0.85;;;6.60;99.90;;;;;;4232448;28;20094;-80
2023/10/15 04:50:43;;;;;;;1.00;0.25;;;6.70;99.90;;;;;;4231991;28;20059;-82
2023/10/15 04:52:46;;;;;;;2.05;0.32;;;6.70;99.90;;;;;;4215842;28;20059;-80
2023/10/15 04:54:47;;;;;;;1.63;0.22;;;6.50;99.90;;;;;;4215623;28;20048;-80
2023/10/15 04:56:48;;;;;;;3.40;0.20;;;6.60;99.90;;;;;;4232625;28;20040;-80
2023/10/15 04:58:51;;;;;;;2.63;0.30;;;6.70;99.90;;;;;;4215490;28;20070;-80
2023/10/15 05:00:51;;;;;;;1.90;0.22;;;6.60;99.90;;;;;;4234198;28;20044;-80
2023/10/15 05:02:53;;;;;;;2.78;0.63;;;6.50;99.90;;;;;;4234143;28;20449;-80
2023/10/15 05:04:54;;;;;;;2.15;0.25;;;6.60;99.90;;;;;;4232687;28;20043;-80
2023/10/15 05:06:56;;;;;;;5.60;0.68;;;7.90;99.90;;;;;;4233636;28;20051;-80
2023/10/15 05:08:57;;;;;;;3.20;0.60;;;6.70;99.90;;;;;;4215491;28;20048;-80
2023/10/15 05:10:58;;;;;;;4.38;0.43;;;7.00;99.90;;;;;;4233883;28;20468;-80
2023/10/15 05:12:59;;;;;;;5.40;0.60;;;6.80;99.90;;;;;;4215386;28;20144;-80
2023/10/15 05:15:00;;;;;;;6.93;0.82;;;6.70;99.90;;;;;;4233278;28;20043;-80
2023/10/15 05:17:01;;;;;;;0.45;0.20;;;6.60;99.90;;;;;;4233359;28;20127;-79
2023/10/15 05:19:02;;;;;;;6.28;0.75;;;7.30;99.90;;;;;;4233559;28;20073;-80
2023/10/15 05:21:03;;;;;;;2.20;0.47;;;6.70;99.90;;;;;;4233636;28;20036;-81
2023/10/15 05:23:04;;;;;;;4.93;0.75;;;7.20;99.90;;;;;;4233425;28;20036;-80
2023/10/15 05:25:15;;;;;;;3.78;0.80;;;6.60;99.90;;;;;;4232475;28;20051;-80
2023/10/15 05:27:16;;;;;;;1.27;0.75;;;6.60;99.90;;;;;;4233634;28;20438;-80
2023/10/15 05:29:17;;;;;;;4.57;0.38;;;7.00;99.90;;;;;;4233423;28;20047;-80
2023/10/15 05:31:18;;;;;;;4.88;1.05;;;6.60;99.90;;;;;;4233931;28;20055;-80
2023/10/15 05:33:18;;;;;;;2.47;0.68;;;8.80;99.90;;;;;;4232836;28;20035;-80
2023/10/15 05:35:19;;;;;;;3.40;0.50;;;7.80;99.90;;;;;;4232715;28;20051;-80
2023/10/15 05:37:21;;;;;;;2.70;0.40;;;7.10;99.90;;;;;;4233542;28;20071;-80
2023/10/15 05:39:24;;;;;;;2.47;0.73;;;7.60;99.90;;;;;;4233614;28;20472;-81
2023/10/15 05:41:25;;;;;;;4.88;0.70;;;7.10;99.90;;;;;;4232825;28;20118;-80
2023/10/15 05:43:27;;;;;;;7.28;0.52;;;7.10;99.90;;;;;;4231902;28;20055;-81
2023/10/15 05:45:27;;;;;;;6.80;0.60;;;7.70;99.90;;;;;;4232980;28;20052;-80
2023/10/15 05:47:28;;;;;;;2.47;0.47;;;6.80;99.90;;;;;;4232037;28;20083;-80
2023/10/15 05:49:29;;;;;;;1.73;0.28;;;7.30;99.90;;;;;;4214918;28;20493;-80
2023/10/15 05:51:32;;;;;;;8.68;1.02;;;6.70;99.90;;;;;;4214558;28;20056;-80
2023/10/15 05:53:33;;;;;;;5.97;0.82;;;6.70;99.90;;;;;;4231490;28;20426;-81
2023/10/15 05:55:34;;;;;;;4.97;0.52;;;7.00;99.90;;;;;;4232249;28;20150;-81
2023/10/15 05:57:36;;;;;;;6.32;0.65;;;6.70;99.90;;;;;;4227532;28;20040;-81
2023/10/15 05:59:36;;;;;;;2.53;0.47;;;6.70;99.90;;;;;;4229326;28;20047;-82
2023/10/15 06:01:37;;;;;;;1.77;0.32;;;6.80;99.90;;;;;;4231628;28;20503;-82
2023/10/15 06:03:38;;;;;;;3.17;0.63;;;6.90;99.90;;;;;;4232328;28;20042;-82
2023/10/15 06:05:39;;;;;;;1.98;0.25;;;6.70;99.90;;;;;;4230896;28;20078;-82
2023/10/15 06:07:43;;;;;;;3.92;0.90;;;7.00;99.90;;;;;;4232337;28;20058;-82
2023/10/15 06:09:45;;;;;;;3.38;0.50;;;8.20;99.90;;;;;;4231960;28;20544;-82
2023/10/15 06:11:46;;;;;;;4.80;0.47;;;6.70;99.90;;;;;;4230876;28;20047;-82
2023/10/15 06:13:47;;;;;;;2.05;0.30;;;6.70;99.90;;;;;;4231558;28;20046;-82
2023/10/15 06:15:48;;;;;;;3.08;0.60;;;6.70;99.90;;;;;;4230487;28;20476;-80
2023/10/15 06:17:50;;;;;;;4.45;0.40;;;6.70;99.90;;;;;;4231826;28;20434;-81
2023/10/15 06:19:51;;;;;;;5.90;0.40;;;7.50;99.90;;;;;;4230605;28;20101;-82
2023/10/15 06:21:52;;;;;;;4.78;0.40;;;6.70;99.90;;;;;;4230861;28;20044;-82
2023/10/15 06:23:53;;;;;;;7.63;0.95;;;6.80;99.90;;;;;;4232085;28;20498;-82
2023/10/15 06:25:54;;;;;;;3.95;0.50;;;6.80;99.90;;;;;;4230750;28;20103;-83
2023/10/15 06:27:55;;;;;;;1.67;0.32;;;7.60;99.90;;;;;;4232030;28;20411;-82
2023/10/15 06:29:56;;;;;;;3.25;0.60;;;6.70;99.90;;;;;;4231007;28;20105;-82
2023/10/15 06:32:00;;;;;;;2.42;0.30;;;6.70;99.90;;;;;;4232734;28;20039;-80
2023/10/15 06:34:07;;;;;;;2.13;0.60;;;7.50;99.90;;;;;;4232800;28;20608;-80
2023/10/15 06:36:22;;;;;;;3.08;0.47;;;7.20;99.90;;;;;;4215645;28;20048;-80
2023/10/15 06:38:28;;;;;;;4.22;0.73;;;6.80;99.90;;;;;;4234131;28;20051;-80
2023/10/15 06:40:30;;;;;;;1.05;0.22;;;6.60;99.90;;;;;;4233453;28;20071;-80
2023/10/15 06:42:31;;;;;;;5.05;0.60;;;8.10;99.90;;;;;;4221346;28;20049;-81
2023/10/15 06:44:32;;;;;;;4.03;0.45;;;6.70;99.90;;;;;;4251343;28;20027;-82
2023/10/15 06:46:34;;;;;;;2.85;0.52;;;6.70;99.90;;;;;;4246363;28;20051;-82
2023/10/15 06:48:37;;;;;;;1.05;0.35;;;7.60;99.90;;;;;;4238095;28;20142;-82
2023/10/15 06:50:38;;;;;;;4.88;0.68;;;6.80;99.90;;;;;;4241287;28;20535;-81
2023/10/15 06:52:40;;;;;;;3.17;0.43;;;6.70;99.90;;;;;;4231249;28;20048;-82
2023/10/15 06:54:41;;;;;;;11.25;1.17;;;6.70;99.90;;;;;;4231587;28;20519;-82
2023/10/15 06:56:42;;;;;;;2.42;0.43;;;7.30;99.90;;;;;;4231160;28;20043;-82
2023/10/15 06:58:43;;;;;;;7.20;0.50;;;8.80;99.90;;;;;;4231462;28;20046;-82
2023/10/15 07:00:45;;;;;;;8.15;0.90;;;6.80;99.90;;;;;;4230896;28;20239;-82
2023/10/15 07:02:46;;;;;;;6.55;0.40;;;6.70;99.90;;;;;;4231915;28;20500;-82
2023/10/15 07:04:47;;;;;;;5.13;0.73;;;6.80;99.90;;;;;;4230665;28;20052;-82
2023/10/15 07:06:49;;;;;;;2.13;0.60;;;7.30;99.90;;;;;;4230458;28;20039;-82
2023/10/15 07:08:50;;;;;;;2.55;0.40;;;7.90;99.90;;;;;;4232272;28;20104;-82
2023/10/15 07:10:53;;;;;;;0.95;0.20;;;7.30;99.90;;;;;;4232185;28;20043;-82
2023/10/15 07:12:57;;;;;;;4.93;0.50;;;6.90;99.90;;;;;;4232306;28;20054;-82
2023/10/15 07:14:58;;;;;;;3.60;0.57;;;7.40;99.90;;;;;;4235286;28;20083;-81
2023/10/15 07:16:59;;;;;;;4.10;0.38;;;7.50;99.90;;;;;;4233305;28;20119;-82
2023/10/15 07:19:01;;;;;;;3.25;0.60;;;7.50;99.90;;;;;;4234936;28;20048;-82
2023/10/15 07:21:02;;;;;;;3.95;0.55;;;6.90;99.90;;;;;;4235197;28;20047;-82
2023/10/15 07:23:03;;;;;;;7.47;1.15;;;6.80;99.90;;;;;;4233901;28;20040;-82
2023/10/15 07:25:04;;;;;;;2.13;0.30;;;6.90;99.90;;;;;;4234856;28;20040;-82
2023/10/15 07:27:05;;;;;;;5.45;0.35;;;6.90;99.90;;;;;;4216280;28;20060;-82
2023/10/15 07:29:06;;;;;;;3.58;0.50;;;7.30;99.90;;;;;;4234758;28;20051;-82
2023/10/15 07:31:08;;;;;;;3.10;0.40;;;7.20;99.90;;;;;;4234787;28;20051;-82
2023/10/15 07:33:10;;;;;;;1.95;0.70;;;7.00;99.90;;;;;;4234630;28;20038;-82
2023/10/15 07:35:12;;;;;;;3.05;0.55;;;7.30;99.90;;;;;;4234886;28;20044;-82
2023/10/15 07:37:14;;;;;;;4.38;0.60;;;7.10;99.90;;;;;;4221470;28;20048;-82
2023/10/15 07:39:15;;;;;;;3.92;0.50;;;7.00;99.90;;;;;;4217957;28;20048;-82
2023/10/15 07:41:15;;;;;;;2.28;0.28;;;8.60;99.90;;;;;;4217764;28;20091;-82
2023/10/15 07:43:16;;;;;;;1.95;0.30;;;8.40;99.90;;;;;;4217744;28;20103;-82
2023/10/15 07:45:19;;;;;;;0.50;0.30;;;7.00;99.90;;;;;;4217799;28;20120;-82
2023/10/15 07:47:20;;;;;;;5.13;0.43;;;7.10;99.90;;;;;;4217523;28;20469;-80
2023/10/15 07:49:21;;;;;;;1.42;0.47;;;7.50;99.90;;;;;;4217366;28;20051;-80
2023/10/15 07:51:21;;;;;;;5.88;0.77;;;6.90;99.90;;;;;;4232139;28;20134;-82
2023/10/15 07:53:23;;;;;;;2.33;0.60;;;7.10;99.90;;;;;;4234655;28;20399;-80
2023/10/15 07:55:24;;;;;;;5.18;0.35;;;6.90;99.90;;;;;;4209695;28;20526;-82
2023/10/15 07:57:25;;;;;;;2.17;0.30;;;7.00;99.90;;;;;;4233933;28;20075;-80
2023/10/15 07:59:26;;;;;;;3.38;0.85;;;7.40;99.90;;;;;;4216239;28;20040;-80
2023/10/15 08:01:27;;;;;;;2.53;0.95;;;7.10;99.90;;;;;;4216178;28;20064;-80
2023/10/15 08:03:29;;;;;;;1.50;0.63;;;7.90;99.90;;;;;;4216689;28;20158;-81
2023/10/15 08:05:31;;;;;;;3.13;0.43;;;8.30;99.90;;;;;;4216156;28;20044;-81
2023/10/15 08:07:32;;;;;;;2.67;0.55;;;7.60;99.90;;;;;;4216445;28;20093;-81
2023/10/15 08:09:33;;;;;;;5.68;0.65;;;8.10;99.90;;;;;;4233777;28;20039;-81
2023/10/15 08:11:34;;;;;;;4.55;0.75;;;8.60;99.90;;;;;;4214783;28;20079;-80
2023/10/15 08:13:35;;;;;;;4.50;0.85;;;9.60;99.90;;;;;;4233132;28;20425;-81
2023/10/15 08:15:38;;;;;;;2.28;0.50;;;10.20;99.90;;;;;;4214752;28;20079;-80
2023/10/15 08:17:39;;;;;;;3.17;0.35;;;10.00;99.90;;;;;;4214880;28;20043;-80
2023/10/15 08:19:40;;;;;;;2.10;0.50;;;9.50;99.90;;;;;;4232842;28;20032;-80
2023/10/15 08:21:41;;;;;;;4.55;0.65;;;9.20;99.90;;;;;;4233276;28;20040;-80
2023/10/15 08:23:42;;;;;;;7.82;0.73;;;8.90;99.90;;;;;;4214897;28;20077;-80
2023/10/15 08:25:43;;;;;;;4.65;0.85;;;8.70;99.90;;;;;;4213900;28;20048;-80
2023/10/15 08:27:44;;;;;;;2.63;0.47;;;8.50;99.90;;;;;;4233208;28;20055;-80
2023/10/15 08:29:45;;;;;;;3.63;0.45;;;8.90;99.90;;;;;;4215302;28;20539;-81
2023/10/15 08:31:47;;;;;;;5.38;1.10;;;10.00;99.90;;;;;;4232668;28;20036;-81
2023/10/15 08:33:47;;;;;;;4.28;0.38;;;10.70;99.90;;;;;;4214285;28;20048;-81
2023/10/15 08:35:49;;;;;;;7.75;1.30;;;10.60;99.90;;;;;;4197646;28;20140;-80
2023/10/15 08:37:50;;;;;;;9.68;1.75;;;10.00;99.90;;;;;;4214311;28;20419;-80
2023/10/15 08:39:51;;;;;;;2.50;0.68;;;9.40;99.90;;;;;;4232255;28;20047;-80
2023/10/15 08:41:54;;;;;;;2.58;0.35;;;9.00;99.90;;;;;;4214541;28;20092;-80
2023/10/15 08:43:56;;;;;;;5.75;1.45;;;8.60;99.90;;;;;;4232483;28;20077;-80
2023/10/15 08:45:58;;;;;;;4.80;0.90;;;8.20;99.90;;;;;;4214495;28;20044;-80
2023/10/15 08:48:05;;;;;;;10.20;0.73;;;8.00;99.90;;;;;;4232809;28;20052;-80
2023/10/15 08:50:10;;;;;;;2.53;0.90;;;7.70;99.90;;;;;;4232584;28;20070;-81
2023/10/15 08:52:11;;;;;;;5.65;0.55;;;7.50;99.90;;;;;;4232229;28;20044;-80
2023/10/15 08:54:15;;;;;;;2.38;0.85;;;7.30;99.90;;;;;;4215013;28;20052;-80
2023/10/15 08:56:21;;;;;;;4.20;0.95;;;8.30;99.90;;;;;;4233069;28;20042;-80
2023/10/15 08:58:22;;;;;;;5.97;0.43;;;7.60;99.90;;;;;;4233041;28;20040;-80
2023/10/15 09:00:27;;;;;;;1.90;0.30;;;7.40;99.90;;;;;;4232894;28;20377;-80
2023/10/15 09:02:30;;;;;;;1.40;0.30;;;7.50;99.90;;;;;;4198008;28;20124;-80
2023/10/15 09:04:32;;;;;;;6.28;1.05;;;8.50;99.90;;;;;;4232158;28;20040;-80
2023/10/15 09:06:34;;;;;;;2.13;0.35;;;8.60;99.90;;;;;;4232773;28;20114;-80
2023/10/15 09:08:37;;;;;;;0.80;0.25;;;7.70;99.90;;;;;;4214549;28;20508;-80
2023/10/15 09:10:42;;;;;;;0.70;0.35;;;8.30;99.90;;;;;;4214199;28;20048;-80
2023/10/15 09:12:43;;;;;;;3.72;0.25;;;9.00;99.90;;;;;;4231936;28;20101;-80
2023/10/15 09:14:46;;;;;;;4.85;0.40;;;8.50;99.90;;;;;;4214351;28;20577;-80
2023/10/15 09:16:47;;;;;;;1.05;0.20;;;8.40;99.90;;;;;;4232362;28;20036;-81
2023/10/15 09:18:47;;;;;;;3.50;0.30;;;9.00;99.90;;;;;;4232118;28;20571;-81
2023/10/15 09:20:52;;;;;;;2.30;0.32;;;9.70;99.90;;;;;;4213862;28;20113;-81
2023/10/15 09:22:57;;;;;;;5.93;0.60;;;11.40;99.90;;;;;;4231926;28;20100;-81
2023/10/15 09:24:58;;;;;;;1.65;0.35;;;11.60;99.90;;;;;;4231810;28;20397;-81
2023/10/15 09:26:59;;;;;;;2.05;0.65;;;11.90;99.90;;;;;;4231178;28;20048;-81
2023/10/15 09:29:01;;;;;;;4.35;0.70;;;12.10;99.90;;;;;;4213488;28;20508;-81
2023/10/15 09:31:06;;;;;;;5.13;0.63;;;12.90;99.90;;;;;;4234122;27;20087;-80
2023/10/15 09:33:12;;;;;;;0.98;0.30;;;13.90;99.90;;;;;;4248655;27;20039;-81
2023/10/15 09:35:13;;;;;;;6.18;0.45;;;14.70;99.90;;;;;;4248006;27;20046;-81
2023/10/15 09:37:15;;;;;;;1.63;0.28;;;;;;;;;;4213395;28;20134;-81
2023/10/15 09:39:16;;;;;;;4.10;0.70;;;15.30;99.90;;;;;;4248299;27;20118;-81
2023/10/15 09:41:17;;;;;;;3.42;0.60;;;17.20;99.90;;;;;;4213156;28;20432;-82
2023/10/15 09:43:18;;;;;;;4.13;0.65;;;;;;;;;;4248280;27;20398;-81
2023/10/15 09:45:23;;;;;;;7.63;1.38;;;;;;;;;;4230203;28;20403;-81
2023/10/15 09:47:24;;;;;;;4.85;1.08;;;;;;;;;;4248218;27;20509;-81
2023/10/15 09:49:26;;;;;;;4.30;0.90;;;16.40;99.90;;;;;;4213037;28;20381;-83
2023/10/15 09:51:27;;;;;;;3.60;0.80;;;16.20;99.90;;;;;;4248571;27;20054;-82
2023/10/15 09:53:33;;;;;;;5.80;0.50;;;16.10;99.90;;;;;;4213254;28;20051;-83
2023/10/15 09:55:34;;;;;;;12.20;1.55;;;16.10;99.90;;;;;;4229584;28;20108;-84
2023/10/15 09:57:35;;;;;;;5.03;0.60;;;16.00;99.90;;;;;;4212115;28;20524;-85
2023/10/15 09:59:38;;;;;;;5.47;0.50;;;16.10;99.90;;;;;;4214777;28;20117;-86
2023/10/15 10:01:57;;;;;;;3.55;0.57;;;16.20;99.90;;;;;;4248329;27;20043;-85
2023/10/15 10:03:59;;;;;;;2.95;0.75;;;16.30;99.90;;;;;;4245209;27;20047;-84
2023/10/15 10:06:24;;;;;;;2.72;0.95;;;14.90;99.90;;;;;;4231478;28;20058;-84
2023/10/15 10:08:38;;;;;;;2.45;0.60;;;16.30;99.90;;;;;;4197417;28;20044;-84
2023/10/15 10:11:22;;;;;;;3.83;0.80;;;16.40;99.90;;;;;;4212995;28;20052;-84
2023/10/15 10:14:04;;;;;;;6.03;0.85;;;16.20;99.90;;;;;;4184499;28;20067;-84
2023/10/15 10:16:17;;;;;;;5.63;1.27;;;17.20;99.90;;;;;;4232754;28;20059;-84
2023/10/15 10:18:21;;;;;;;6.95;1.20;;;15.50;99.90;;;;;;4230219;28;20031;-84
2023/10/15 10:20:36;;;;;;;6.50;1.10;;;14.20;99.90;;;;;;4247878;28;20487;-84
2023/10/15 10:22:38;;;;;;;4.97;0.80;;;14.50;99.90;;;;;;4229978;28;20043;-84
2023/10/15 10:24:42;;;;;;;3.13;0.52;;;14.10;99.90;;;;;;4248184;28;20047;-84
2023/10/15 10:26:52;;;;;;;3.65;0.40;;;14.00;99.90;;;;;;4248180;28;20043;-84
2023/10/15 10:28:56;;;;;;;5.32;0.55;;;12.60;99.90;;;;;;4248125;28;20046;-84
2023/10/15 10:30:58;;;;;;;1.27;0.30;;;;;;;;;;4248096;28;20506;-84
2023/10/15 10:33:05;;;;;;;1.70;0.40;;;;;;;;;;4229252;28;20051;-84
2023/10/15 10:35:22;;;;;;;4.10;0.50;;;13.00;99.90;;;;;;4247891;28;20483;-84
2023/10/15 10:37:23;;;;;;;2.00;0.50;;;12.20;99.90;;;;;;4213061;28;20097;-84
2023/10/15 10:39:26;;;;;;;3.42;0.50;;;12.00;99.90;;;;;;4229677;28;20477;-84
2023/10/15 10:41:59;;;;;;;4.85;0.80;;;12.20;99.90;;;;;;4229830;28;20046;-84
2023/10/15 10:43:59;;;;;;;5.68;0.55;;;12.50;99.90;;;;;;4247699;28;20083;-84
2023/10/15 10:46:01;;;;;;;4.28;0.40;;;12.60;99.90;;;;;;4247739;28;20058;-84
2023/10/15 10:48:04;;;;;;;1.42;0.70;;;11.80;99.90;;;;;;4213754;28;20516;-84
2023/10/15 10:50:05;;;;;;;1.98;0.57;;;14.00;99.90;;;;;;4233724;28;20059;-84
2023/10/15 10:52:16;;;;;;;6.47;0.57;;;12.50;99.90;;;;;;4233832;28;20051;-84
2023/10/15 10:54:17;;;;;;;3.08;1.10;;;12.20;99.90;;;;;;4233184;28;20356;-84
2023/10/15 10:56:18;;;;;;;2.50;0.68;;;12.20;99.90;;;;;;4241535;28;20039;-84
2023/10/15 10:58:25;;;;;;;10.48;1.50;;;12.10;99.90;;;;;;4248747;28;20048;-83
2023/10/15 11:00:30;;;;;;;1.25;0.40;;;12.20;99.90;;;;;;4233807;28;20043;-83